Time;durP1;ratioP1;P1;durP2;ratioP2;P2;SDS_P1;SDS_P2;PMS_P1;PMS_P2;Temp;Humidity;BMP_temperature;BMP_pressure;BME280_temperature;BME280_humidity;BME280_pressure;Samples;Min_cycle;Max_cycle;Signal;HPM_P1;HPM_P2
2021/03/11 00:01:22;;;;;;;18.63;12.90;;;;;;;;;;4997601;28;20438;-83
2021/03/11 00:03:48;;;;;;;19.70;13.83;;;;;;;;;;4999874;28;20457;-81
2021/03/11 00:06:14;;;;;;;18.40;13.70;;;;;;;;;;4992579;28;21006;-82
2021/03/11 00:08:40;;;;;;;19.83;14.40;;;;;;;;;;4979349;28;20458;-85
2021/03/11 00:11:06;;;;;;;17.90;14.20;;;;;;;;;;4999273;28;20446;-83
2021/03/11 00:13:32;;;;;;;19.00;14.20;;;;;;;;;;4998402;28;20502;-82
2021/03/11 00:15:58;;;;;;;18.00;12.95;;;;;;;;;;4998687;28;20414;-80
2021/03/11 00:18:24;;;;;;;18.88;12.90;;;;;;;;;;4997735;28;20191;-81
2021/03/11 00:20:50;;;;;;;19.08;13.80;;;;;;;;;;4996445;28;20191;-83
2021/03/11 00:23:16;;;;;;;17.52;14.38;;;;;;;;;;4998781;28;20192;-84
2021/03/11 00:25:42;;;;;;;19.35;14.10;;;;;;;;;;5009760;28;20194;-83
2021/03/11 00:28:08;;;;;;;15.73;13.20;;;;;;;;;;5002543;28;20214;-83
2021/03/11 00:30:34;;;;;;;17.95;13.48;;;;;;;;;;4998530;28;20179;-84
2021/03/11 00:33:00;;;;;;;15.13;11.80;;;;;;;;;;4994721;28;20183;-81
2021/03/11 00:35:26;;;;;;;16.63;12.32;;;;;;;;;;4984051;28;20194;-82
2021/03/11 00:37:52;;;;;;;13.00;11.60;;;;;;;;;;4999237;28;20202;-81
2021/03/11 00:40:20;;;;;;;16.77;12.32;;;;;;;;;;4994552;28;20183;-82
2021/03/11 00:42:47;;;;;;;14.50;9.90;;;;;;;;;;5000459;28;20675;-82
2021/03/11 00:45:13;;;;;;;16.38;11.98;;;;;;;;;;4999305;28;20187;-83
2021/03/11 00:47:40;;;;;;;14.63;11.02;;;;;;;;;;5000752;28;20223;-82
2021/03/11 00:50:08;;;;;;;14.00;12.00;;;;;;;;;;4998875;28;20199;-83
2021/03/11 00:52:34;;;;;;;15.00;10.95;;;;;;;;;;5000696;28;20198;-82
2021/03/11 00:55:00;;;;;;;14.93;12.35;;;;;;;;;;4987578;28;20167;-83
2021/03/11 00:57:26;;;;;;;12.33;9.90;;;;;;;;;;5000510;28;20187;-81
2021/03/11 00:59:52;;;;;;;13.03;10.30;;;;;;;;;;4995592;28;20434;-81
2021/03/11 01:02:18;;;;;;;16.60;11.75;;;;;;;;;;4997274;28;20530;-82
2021/03/11 01:04:44;;;;;;;16.27;10.75;;;;;;;;;;4994649;28;20208;-81
2021/03/11 01:07:10;;;;;;;15.57;10.10;;;;;;;;;;4999079;28;20202;-80
2021/03/11 01:09:36;;;;;;;13.10;10.00;;;;;;;;;;5002106;28;20177;-80
2021/03/11 01:12:02;;;;;;;14.17;9.77;;;;;;;;;;4995532;28;20254;-80
2021/03/11 01:14:28;;;;;;;12.60;9.93;;;;;;;;;;4995741;28;20430;-83
2021/03/11 01:16:54;;;;;;;12.20;8.15;;;;;;;;;;4999566;28;20841;-81
2021/03/11 01:19:20;;;;;;;13.18;9.43;;;;;;;;;;4996219;28;20206;-83
2021/03/11 01:21:46;;;;;;;12.40;9.35;;;;;;;;;;4991037;28;20258;-82
2021/03/11 01:24:12;;;;;;;13.23;9.85;;;;;;;;;;4994899;28;20214;-81
2021/03/11 01:26:38;;;;;;;11.00;9.35;;;;;;;;;;4995477;28;20231;-82
2021/03/11 01:29:04;;;;;;;10.85;8.50;;;;;;;;;;4997206;28;20211;-80
2021/03/11 01:31:30;;;;;;;11.53;8.57;;;;;;;;;;4997312;28;20267;-80
2021/03/11 01:33:57;;;;;;;11.00;9.20;;;;;;;;;;4996966;28;20419;-82
2021/03/11 01:36:23;;;;;;;12.88;9.15;;;;;;;;;;4996972;28;20236;-84
2021/03/11 01:38:49;;;;;;;10.15;9.05;;;;;;;;;;4982070;28;20214;-84
2021/03/11 01:41:15;;;;;;;11.93;8.90;;;;;;;;;;4997170;28;20550;-80
2021/03/11 01:43:41;;;;;;;11.57;8.43;;;;;;;;;;4998596;28;20186;-84
2021/03/11 01:46:07;;;;;;;10.98;8.55;;;;;;;;;;5002145;28;20245;-81
2021/03/11 01:48:33;;;;;;;10.75;8.30;;;;;;;;;;5001550;28;20272;-82
2021/03/11 01:50:59;;;;;;;10.02;8.13;;;;;;;;;;4983014;28;20179;-81
2021/03/11 01:53:25;;;;;;;10.52;7.55;;;;;;;;;;4996460;28;20195;-83
2021/03/11 01:55:51;;;;;;;11.50;8.40;;;;;;;;;;4997891;28;20290;-80
2021/03/11 01:58:17;;;;;;;11.25;8.00;;;;;;;;;;4993477;28;20242;-83
2021/03/11 02:00:43;;;;;;;10.15;7.68;;;;;;;;;;4996959;28;20210;-82
2021/03/11 02:03:09;;;;;;;11.50;8.20;;;;;;;;;;5000499;28;20210;-82
2021/03/11 02:05:35;;;;;;;8.48;7.28;;;;;;;;;;5000730;28;20199;-81
2021/03/11 02:08:01;;;;;;;7.50;6.43;;;;;;;;;;5001918;28;20297;-80
2021/03/11 02:10:28;;;;;;;8.85;6.65;;;;;;;;;;5000115;28;20486;-82
2021/03/11 02:12:54;;;;;;;9.82;7.82;;;;;;;;;;5001515;28;20259;-80
2021/03/11 02:15:24;;;;;;;9.73;7.77;;;;;;;;;;4999116;28;20171;-81
2021/03/11 02:17:53;;;;;;;10.50;7.20;;;;;;;;;;4998436;28;20442;-80
2021/03/11 02:20:32;;;;;;;9.93;6.82;;;;;;;;;;5001800;28;20187;-80
2021/03/11 02:23:11;;;;;;;8.02;6.32;;;;;;;;;;4991341;28;20195;-81
2021/03/11 02:25:53;;;;;;;7.65;6.80;;;;;;;;;;4998833;28;20187;-81
2021/03/11 02:28:22;;;;;;;6.93;6.22;;;;;;;;;;4998709;28;20233;-78
2021/03/11 02:30:48;;;;;;;6.07;5.10;;;;;;;;;;4999199;28;20172;-81
2021/03/11 02:33:14;;;;;;;8.65;5.65;;;;;;;;;;4997247;28;20203;-81
2021/03/11 02:35:42;;;;;;;6.47;5.25;;;;;;;;;;4996441;28;20227;-81
2021/03/11 02:38:08;;;;;;;7.05;5.05;;;;;;;;;;5004279;28;20197;-84
2021/03/11 02:40:35;;;;;;;6.18;4.85;;;;;;;;;;4998407;28;20552;-81
2021/03/11 02:43:03;;;;;;;8.45;5.03;;;;;;;;;;4983252;28;20183;-82
2021/03/11 02:45:30;;;;;;;5.30;4.32;;;;;;;;;;4999255;28;20187;-79
2021/03/11 02:47:58;;;;;;;5.35;4.13;;;;;;;;;;4997219;28;20230;-81
2021/03/11 02:50:24;;;;;;;5.40;4.55;;;;;;;;;;4997551;28;20191;-81
2021/03/11 02:52:51;;;;;;;3.72;3.42;;;;;;;;;;5004109;28;20198;-86
2021/03/11 02:55:17;;;;;;;3.80;3.40;;;;;;;;;;5000174;28;20246;-79
2021/03/11 02:57:43;;;;;;;3.47;3.17;;;;;;;;;;4988973;28;20183;-81
2021/03/11 03:00:11;;;;;;;4.55;3.88;;;;;;;;;;4996444;28;20533;-81
2021/03/11 03:02:41;;;;;;;4.35;3.75;;;;;;;;;;4996136;28;20193;-80
2021/03/11 03:05:08;;;;;;;3.92;3.35;;;;;;;;;;4982240;28;20183;-80
2021/03/11 03:07:35;;;;;;;3.65;3.33;;;;;;;;;;4999970;28;20294;-83
2021/03/11 03:10:01;;;;;;;4.15;3.60;;;;;;;;;;5000447;28;20294;-82
2021/03/11 03:12:27;;;;;;;5.80;3.70;;;;;;;;;;4998750;28;20559;-80
2021/03/11 03:14:54;;;;;;;3.63;3.20;;;;;;;;;;4997345;28;20183;-81
2021/03/11 03:17:21;;;;;;;4.97;3.53;;;;;;;;;;4998744;28;20454;-80
2021/03/11 03:19:47;;;;;;;4.45;4.00;;;;;;;;;;5001249;28;20202;-81
2021/03/11 03:22:14;;;;;;;3.47;2.95;;;;;;;;;;4998122;28;20654;-82
2021/03/11 03:24:41;;;;;;;3.50;3.20;;;;;;;;;;4999485;28;20167;-80
2021/03/11 03:27:11;;;;;;;4.70;3.10;;;;;;;;;;4984735;28;20194;-80
2021/03/11 03:29:37;;;;;;;8.90;2.97;;;;;;;;;;4997934;28;20252;-80
2021/03/11 03:32:04;;;;;;;2.95;2.70;;;;;;;;;;5000670;28;20207;-82
2021/03/11 03:34:30;;;;;;;4.60;2.38;;;;;;;;;;4998927;28;20254;-82
2021/03/11 03:36:56;;;;;;;4.43;2.72;;;;;;;;;;4989597;28;20179;-81
2021/03/11 03:39:22;;;;;;;4.10;3.07;;;;;;;;;;4998200;28;20554;-81
2021/03/11 03:41:49;;;;;;;2.88;2.40;;;;;;;;;;4996448;28;20465;-80
2021/03/11 03:44:18;;;;;;;2.85;2.35;;;;;;;;;;4991336;28;20720;-82
2021/03/11 03:46:46;;;;;;;2.55;2.35;;;;;;;;;;5000324;28;20590;-81
2021/03/11 03:49:13;;;;;;;2.30;2.08;;;;;;;;;;4997881;28;20222;-81
2021/03/11 03:51:42;;;;;;;2.08;1.88;;;;;;;;;;5005249;28;20175;-81
2021/03/11 03:54:10;;;;;;;2.38;2.17;;;;;;;;;;4996584;28;20250;-80
2021/03/11 03:56:42;;;;;;;2.42;2.22;;;;;;;;;;5004020;28;20187;-79
2021/03/11 03:59:14;;;;;;;2.40;2.05;;;;;;;;;;4999181;28;20191;-80
2021/03/11 04:01:40;;;;;;;2.00;1.80;;;;;;;;;;4999746;28;20266;-80
2021/03/11 04:04:07;;;;;;;2.63;1.88;;;;;;;;;;4986683;28;20180;-82
2021/03/11 04:06:34;;;;;;;1.83;1.60;;;;;;;;;;4998572;28;20185;-81
2021/03/11 04:09:01;;;;;;;1.90;1.80;;;;;;;;;;4995953;28;20209;-81
2021/03/11 04:11:28;;;;;;;2.25;1.50;;;;;;;;;;5001503;28;20187;-80
2021/03/11 04:13:54;;;;;;;1.40;1.30;;;;;;;;;;5001110;28;20227;-81
2021/03/11 04:16:21;;;;;;;3.22;1.75;;;;;;;;;;4996642;28;20206;-79
2021/03/11 04:18:47;;;;;;;3.45;1.50;;;;;;;;;;4999944;28;20182;-80
2021/03/11 04:21:13;;;;;;;1.60;1.50;;;;;;;;;;4995667;28;20171;-81
2021/03/11 04:23:40;;;;;;;2.17;1.60;;;;;;;;;;4996088;28;20187;-84
2021/03/11 04:26:06;;;;;;;1.50;1.40;;;;;;;;;;4997336;28;20193;-81
2021/03/11 04:28:33;;;;;;;1.40;1.30;;;;;;;;;;4996290;28;20203;-79
2021/03/11 04:30:59;;;;;;;1.50;1.40;;;;;;;;;;4988330;28;20163;-82
2021/03/11 04:33:25;;;;;;;1.35;1.25;;;;;;;;;;4995025;28;20180;-80
2021/03/11 04:35:51;;;;;;;1.20;1.10;;;;;;;;;;4992267;28;20270;-80
2021/03/11 04:38:18;;;;;;;2.28;1.30;;;;;;;;;;4997561;28;20191;-80
2021/03/11 04:40:44;;;;;;;1.30;1.10;;;;;;;;;;5000193;28;20179;-81
2021/03/11 04:43:10;;;;;;;0.88;0.80;;;;;;;;;;4996838;28;20210;-82
2021/03/11 04:45:36;;;;;;;1.38;1.27;;;;;;;;;;5007831;28;20205;-80
2021/03/11 04:48:02;;;;;;;2.45;1.50;;;;;;;;;;4995488;28;20276;-79
2021/03/11 04:50:30;;;;;;;1.15;1.08;;;;;;;;;;4997610;28;20183;-80
2021/03/11 04:52:56;;;;;;;1.30;1.10;;;;;;;;;;5000313;28;20572;-81
2021/03/11 04:55:22;;;;;;;2.13;1.58;;;;;;;;;;5007910;28;20321;-80
2021/03/11 04:57:48;;;;;;;1.52;1.10;;;;;;;;;;4990444;28;20187;-80
2021/03/11 05:00:15;;;;;;;1.23;1.10;;;;;;;;;;4996155;28;20167;-80
2021/03/11 05:02:44;;;;;;;0.95;0.85;;;;;;;;;;4995729;28;20266;-81
2021/03/11 05:05:10;;;;;;;1.50;1.10;;;;;;;;;;4998017;28;20191;-81
2021/03/11 05:07:36;;;;;;;1.10;1.00;;;;;;;;;;4997601;28;20243;-81
2021/03/11 05:10:02;;;;;;;1.47;1.20;;;;;;;;;;4987186;28;20163;-80
2021/03/11 05:12:28;;;;;;;1.17;1.02;;;;;;;;;;4997251;28;20410;-81
2021/03/11 05:14:54;;;;;;;1.20;0.80;;;;;;;;;;4982869;28;20176;-80
2021/03/11 05:17:20;;;;;;;3.05;2.75;;;;;;;;;;4996544;28;20556;-80
2021/03/11 05:19:46;;;;;;;1.83;0.83;;;;;;;;;;4995247;28;20247;-83
2021/03/11 05:22:12;;;;;;;1.10;0.90;;;;;;;;;;5000110;28;20438;-81
2021/03/11 05:24:38;;;;;;;1.45;0.90;;;;;;;;;;4995523;28;20191;-80
2021/03/11 05:27:04;;;;;;;1.20;1.02;;;;;;;;;;4995127;28;20199;-85
2021/03/11 05:29:30;;;;;;;5.93;2.15;;;;;;;;;;4982458;28;20194;-82
2021/03/11 05:31:56;;;;;;;1.10;1.00;;;;;;;;;;4998408;28;20241;-82
2021/03/11 05:34:22;;;;;;;1.15;1.00;;;;;;;;;;4996189;28;20434;-81
2021/03/11 05:36:48;;;;;;;0.97;0.80;;;;;;;;;;4999219;28;20186;-81
2021/03/11 05:39:14;;;;;;;1.27;1.10;;;;;;;;;;4999387;28;20434;-82
2021/03/11 05:41:41;;;;;;;1.37;1.07;;;;;;;;;;4987075;28;20190;-81
2021/03/11 05:44:08;;;;;;;2.15;1.08;;;;;;;;;;5002272;28;20452;-82
2021/03/11 05:46:40;;;;;;;4.30;1.65;;;;;;;;;;5000855;28;20184;-80
2021/03/11 05:49:08;;;;;;;4.45;1.77;;;;;;;;;;4989324;28;20226;-80
2021/03/11 05:51:35;;;;;;;4.20;1.15;;;;;;;;;;5001585;28;20243;-82
2021/03/11 05:54:02;;;;;;;4.10;1.30;;;;;;;;;;4986342;28;20187;-81
2021/03/11 05:56:28;;;;;;;1.75;1.23;;;;;;;;;;5000975;28;20180;-81
2021/03/11 05:58:55;;;;;;;2.90;1.30;;;;;;;;;;4997895;28;20237;-83
2021/03/11 06:01:24;;;;;;;2.35;1.52;;;;;;;;;;5004371;28;20179;-80
2021/03/11 06:03:50;;;;;;;3.70;1.05;;;;;;;;;;4993303;28;20183;-81
2021/03/11 06:06:17;;;;;;;2.35;1.38;;;;;;;;;;5006085;28;20205;-80
2021/03/11 06:08:42;;;;;;;2.35;1.00;;;;;;;;;;5002058;28;20203;-83
2021/03/11 06:11:09;;;;;;;3.37;1.20;;;;;;;;;;5000411;28;20676;-81
2021/03/11 06:13:35;;;;;;;0.93;0.82;;;;;;;;;;4999675;28;20880;-81
2021/03/11 06:16:02;;;;;;;2.35;1.02;;;;;;;;;;5000242;28;20204;-81
2021/03/11 06:18:32;;;;;;;2.25;0.90;;;;;;;;;;4999686;28;20186;-78
2021/03/11 06:21:00;;;;;;;3.25;1.30;;;;;;;;;;4996363;28;20183;-83
2021/03/11 06:23:26;;;;;;;1.80;1.15;;;;;;;;;;4998676;28;20203;-83
2021/03/11 06:25:53;;;;;;;1.43;1.10;;;;;;;;;;5002931;28;20187;-82
2021/03/11 06:28:39;;;;;;;3.60;2.17;;;;;;;;;;5002894;28;20473;-82
2021/03/11 06:31:17;;;;;;;3.35;1.00;;;;;;;;;;5003336;28;20181;-84
2021/03/11 06:33:43;;;;;;;2.40;1.48;;;;;;;;;;5006480;28;20167;-83
2021/03/11 06:36:13;;;;;;;2.17;1.15;;;;;;;;;;4998844;28;20225;-85
2021/03/11 06:38:39;;;;;;;6.38;1.20;;;;;;;;;;4999180;28;20192;-83
2021/03/11 06:41:05;;;;;;;1.80;1.00;;;;;;;;;;4985460;28;20183;-85
2021/03/11 06:43:31;;;;;;;2.75;1.15;;;;;;;;;;4992366;28;20194;-85
2021/03/11 06:46:10;;;;;;;5.45;1.60;;;;;;;;;;5005557;28;20202;-83
2021/03/11 06:48:36;;;;;;;4.57;1.80;;;;;;;;;;4998424;28;20219;-83
2021/03/11 06:51:03;;;;;;;3.27;1.27;;;;;;;;;;4996675;28;20183;-87
2021/03/11 06:53:30;;;;;;;1.50;1.02;;;;;;;;;;5005305;28;20777;-84
2021/03/11 06:56:15;;;;;;;4.60;1.52;;;;;;;;;;5004316;28;20680;-84
2021/03/11 06:58:41;;;;;;;3.08;1.10;;;;;;;;;;4983918;28;20225;-87
2021/03/11 07:01:08;;;;;;;4.10;1.83;;;;;;;;;;4988697;28;20175;-89
2021/03/11 07:03:38;;;;;;;2.60;1.27;;;;;;;;;;4998663;28;20175;-88
2021/03/11 07:06:04;;;;;;;3.28;1.58;;;;;;;;;;4992370;28;20191;-86
2021/03/11 07:08:30;;;;;;;1.75;0.90;;;;;;;;;;4999551;28;20290;-83
2021/03/11 07:11:03;;;;;;;4.25;1.50;;;;;;;;;;5002075;28;20599;-84
2021/03/11 07:13:37;;;;;;;3.88;1.10;;;;;;;;;;5004517;28;20183;-86
2021/03/11 07:16:10;;;;;;;1.05;0.95;;;;;;;;;;4989367;28;20583;-85
2021/03/11 07:18:36;;;;;;;2.95;1.35;;;;;;;;;;5004571;28;20274;-85
2021/03/11 07:21:02;;;;;;;5.10;1.40;;;;;;;;;;4997617;28;20194;-87
2021/03/11 07:23:28;;;;;;;4.07;1.30;;;;;;;;;;5004906;28;20485;-82
2021/03/11 07:25:54;;;;;;;2.65;1.60;;;;;;;;;;4990147;28;20241;-85
2021/03/11 07:28:27;;;;;;;3.55;0.95;;;;;;;;;;4989230;28;20233;-83
2021/03/11 07:30:53;;;;;;;1.83;0.82;;;;;;;;;;4994453;28;20179;-84
2021/03/11 07:33:19;;;;;;;3.55;0.80;;;;;;;;;;5001835;28;20179;-83
2021/03/11 07:35:47;;;;;;;1.42;0.80;;;;;;;;;;4997109;28;20172;-81
2021/03/11 07:38:16;;;;;;;2.00;1.00;;;;;;;;;;4999551;28;20188;-85
2021/03/11 07:40:42;;;;;;;3.60;0.90;;;;;;;;;;5000760;28;20202;-85
2021/03/11 07:43:08;;;;;;;2.88;1.05;;;;;;;;;;4987663;28;20201;-84
2021/03/11 07:45:34;;;;;;;1.98;0.80;;;;;;;;;;4994943;28;20176;-84
2021/03/11 07:48:02;;;;;;;2.97;0.75;;;;;;;;;;4994848;28;20230;-83
2021/03/11 07:50:28;;;;;;;1.25;0.85;;;;;;;;;;4984548;28;20589;-84
2021/03/11 07:52:55;;;;;;;1.60;0.93;;;;;;;;;;5002215;28;20191;-85
2021/03/11 07:55:21;;;;;;;4.93;1.10;;;;;;;;;;4999367;28;20238;-86
2021/03/11 07:57:47;;;;;;;3.75;0.80;;;;;;;;;;5000758;28;20201;-83
2021/03/11 08:00:14;;;;;;;1.60;1.20;;;;;;;;;;4985724;28;20196;-84
2021/03/11 08:02:44;;;;;;;3.35;0.93;;;;;;;;;;5002433;28;20187;-83
2021/03/11 08:05:11;;;;;;;4.50;0.80;;;;;;;;;;4997800;28;20195;-85
2021/03/11 08:07:37;;;;;;;2.28;0.70;;;;;;;;;;4997619;28;20211;-83
2021/03/11 08:10:18;;;;;;;1.35;0.60;;;;;;;;;;4988163;28;20209;-83
2021/03/11 08:12:44;;;;;;;1.15;1.05;;;;;;;;;;5000514;28;20167;-82
2021/03/11 08:15:10;;;;;;;4.90;1.13;;;;;;;;;;5001367;28;20187;-81
2021/03/11 08:17:39;;;;;;;2.72;1.10;;;;;;;;;;4999819;28;20198;-85
2021/03/11 08:20:29;;;;;;;1.65;1.13;;;;;;;;;;4999101;28;20190;-83
2021/03/11 08:22:57;;;;;;;4.65;1.08;;;;;;;;;;4975876;28;20198;-86
2021/03/11 08:25:33;;;;;;;5.03;1.20;;;;;;;;;;4995993;28;20229;-84
2021/03/11 08:28:19;;;;;;;3.45;1.20;;;;;;;;;;4988992;28;20233;-81
2021/03/11 08:30:52;;;;;;;6.22;1.65;;;;;;;;;;5002294;28;20609;-79
2021/03/11 08:33:21;;;;;;;2.63;1.00;;;;;;;;;;4997480;28;20287;-82
2021/03/11 08:35:52;;;;;;;4.03;1.30;;;;;;;;;;4983630;28;20179;-79
2021/03/11 08:38:21;;;;;;;2.85;1.23;;;;;;;;;;4997222;28;20195;-81
2021/03/11 08:40:54;;;;;;;3.20;0.90;;;;;;;;;;5000100;28;20182;-82
2021/03/11 08:43:39;;;;;;;1.75;1.10;;;;;;;;;;4996998;28;20375;-81
2021/03/11 08:46:12;;;;;;;5.57;1.20;;;;;;;;;;4997328;28;20175;-83
2021/03/11 08:48:38;;;;;;;3.47;1.20;;;;;;;;;;4993660;28;20449;-81
2021/03/11 08:51:05;;;;;;;1.92;0.88;;;;;;;;;;4999291;28;20185;-81
2021/03/11 08:53:38;;;;;;;5.32;1.40;;;;;;;;;;4999401;28;20184;-80
2021/03/11 08:56:16;;;;;;;2.85;1.00;;;;;;;;;;4984209;28;20214;-84
2021/03/11 08:58:56;;;;;;;7.30;1.48;;;;;;;;;;4997278;28;20178;-82
2021/03/11 09:01:31;;;;;;;8.52;1.52;;;;;;;;;;4994871;28;20223;-79
2021/03/11 09:04:01;;;;;;;4.40;1.58;;;;;;;;;;5001185;28;20543;-80
2021/03/11 09:06:46;;;;;;;3.17;1.17;;;;;;;;;;4996613;28;20182;-83
2021/03/11 09:09:12;;;;;;;2.90;1.02;;;;;;;;;;4999710;28;20207;-84
2021/03/11 09:11:38;;;;;;;4.05;1.52;;;;;;;;;;4995228;28;20187;-82
2021/03/11 09:14:09;;;;;;;2.83;1.38;;;;;;;;;;4981447;28;20265;-84
2021/03/11 09:16:35;;;;;;;4.07;2.60;;;;;;;;;;4996541;28;20179;-85
2021/03/11 09:19:01;;;;;;;4.70;1.45;;;;;;;;;;5008189;28;20193;-83
2021/03/11 09:21:34;;;;;;;6.50;1.57;;;;;;;;;;4997573;28;20175;-83
2021/03/11 09:24:00;;;;;;;7.63;1.83;;;;;;;;;;4999114;28;20442;-83
2021/03/11 09:26:28;;;;;;;4.17;1.70;;;;;;;;;;4995181;28;20544;-83
2021/03/11 09:28:54;;;;;;;6.57;1.77;;;;;;;;;;5004546;28;20462;-83
2021/03/11 09:31:23;;;;;;;6.50;2.38;;;;;;;;;;4996138;28;20210;-82
2021/03/11 09:33:50;;;;;;;4.10;2.10;;;;;;;;;;4990565;28;20179;-84
2021/03/11 09:36:16;;;;;;;10.57;2.92;;;;;;;;;;4997296;28;20171;-81
2021/03/11 09:38:42;;;;;;;10.57;3.40;;;;;;;;;;4983857;28;20279;-83
2021/03/11 09:41:09;;;;;;;8.40;2.55;;;;;;;;;;5007075;28;20187;-81
2021/03/11 09:43:35;;;;;;;8.02;2.08;;;;;;;;;;4997895;28;20191;-82
2021/03/11 09:46:03;;;;;;;13.00;2.10;;;;;;;;;;4991464;28;20178;-80
2021/03/11 09:48:29;;;;;;;9.32;2.50;;;;;;;;;;4991862;28;20274;-83
2021/03/11 09:50:55;;;;;;;15.03;3.30;;;;;;;;;;4990566;28;20187;-83
2021/03/11 09:53:22;;;;;;;7.53;2.63;;;;;;;;;;4994600;28;20502;-81
2021/03/11 09:55:48;;;;;;;12.43;3.08;;;;;;;;;;5001830;28;20434;-81
2021/03/11 09:58:17;;;;;;;7.97;4.22;;;;;;;;;;4984076;28;20187;-82
2021/03/11 10:00:44;;;;;;;6.53;3.25;;;;;;;;;;4994653;28;20179;-84
2021/03/11 10:03:16;;;;;;;6.47;2.72;;;;;;;;;;4995124;28;20190;-80
2021/03/11 10:05:43;;;;;;;14.30;4.68;;;;;;;;;;4982682;28;20183;-84
2021/03/11 10:08:09;;;;;;;9.52;2.72;;;;;;;;;;4996553;28;20219;-78
2021/03/11 10:10:35;;;;;;;14.50;3.42;;;;;;;;;;4996801;28;20184;-82
2021/03/11 10:13:01;;;;;;;9.73;2.70;;;;;;;;;;4996902;28;20186;-82
2021/03/11 10:15:27;;;;;;;5.80;2.80;;;;;;;;;;5002101;28;20175;-79
2021/03/11 10:18:09;;;;;;;12.52;2.97;;;;;;;;;;4985230;28;21033;-84
2021/03/11 10:20:36;;;;;;;6.75;3.22;;;;;;;;;;5000663;28;20206;-80
2021/03/11 10:23:20;;;;;;;14.00;2.63;;;;;;;;;;5000799;28;20184;-80
2021/03/11 10:25:46;;;;;;;10.52;3.50;;;;;;;;;;5002247;28;20195;-81
2021/03/11 10:28:12;;;;;;;14.90;3.00;;;;;;;;;;4986704;28;20254;-82
2021/03/11 10:30:40;;;;;;;10.82;3.28;;;;;;;;;;5001521;28;20184;-83
2021/03/11 10:33:06;;;;;;;11.48;2.65;;;;;;;;;;5001939;28;20179;-81
2021/03/11 10:35:37;;;;;;;8.57;2.90;;;;;;;;;;5002600;28;20198;-80
2021/03/11 10:38:17;;;;;;;14.52;3.63;;;;;;;;;;5001342;28;20606;-82
2021/03/11 10:40:43;;;;;;;14.05;2.58;;;;;;;;;;5013983;28;20186;-82
2021/03/11 10:43:23;;;;;;;11.48;2.83;;;;;;;;;;5003782;28;20205;-84
2021/03/11 10:45:49;;;;;;;12.80;2.95;;;;;;;;;;5003237;28;20210;-80
2021/03/11 10:48:15;;;;;;;12.85;2.60;;;;;;;;;;4985064;28;20219;-79
2021/03/11 10:50:52;;;;;;;10.07;2.78;;;;;;;;;;5005928;28;20207;-81
2021/03/11 10:53:19;;;;;;;11.93;3.45;;;;;;;;;;5002430;28;20226;-83
2021/03/11 10:55:46;;;;;;;9.52;2.92;;;;;;;;;;5004033;28;20249;-78
2021/03/11 10:58:20;;;;;;;7.40;2.60;;;;;;;;;;4986260;28;20191;-80
2021/03/11 11:00:47;;;;;;;10.85;2.85;;;;;;;;;;5004747;28;20687;-80
2021/03/11 11:03:13;;;;;;;9.98;3.00;;;;;;;;;;5001813;28;20183;-77
2021/03/11 11:05:39;;;;;;;12.10;3.58;;;;;;;;;;5005056;28;20187;-82
2021/03/11 11:08:08;;;;;;;10.60;3.03;;;;;;;;;;5002695;28;20214;-81
2021/03/11 11:10:34;;;;;;;9.38;2.80;;;;;;;;;;5013209;28;20439;-79
2021/03/11 11:13:01;;;;;;;9.80;2.90;;;;;;;;;;5000304;28;20171;-80
2021/03/11 11:15:30;;;;;;;9.75;3.30;;;;;;;;;;5003977;28;20290;-82
2021/03/11 11:17:56;;;;;;;15.75;3.28;;;;;;;;;;4984020;28;20262;-81
2021/03/11 11:20:22;;;;;;;7.63;3.20;;;;;;;;;;5002779;28;20193;-79
2021/03/11 11:22:49;;;;;;;9.00;2.35;;;;;;;;;;5002096;28;20470;-83
2021/03/11 11:25:15;;;;;;;10.50;2.70;;;;;;;;;;5003648;28;20188;-83
2021/03/11 11:27:41;;;;;;;7.18;2.13;;;;;;;;;;5005676;28;20252;-82
2021/03/11 11:30:08;;;;;;;11.57;3.10;;;;;;;;;;5002490;28;20668;-83
2021/03/11 11:32:34;;;;;;;7.70;2.75;;;;;;;;;;4984529;28;20212;-79
2021/03/11 11:35:00;;;;;;;9.82;2.83;;;;;;;;;;5002786;28;20614;-81
2021/03/11 11:37:26;;;;;;;8.20;2.60;;;;;;;;;;4998282;28;20187;-79
2021/03/11 11:39:52;;;;;;;6.47;2.53;;;;;;;;;;4988391;28;20253;-82
2021/03/11 11:42:18;;;;;;;6.43;2.38;;;;;;;;;;4993337;28;20472;-83
2021/03/11 11:44:45;;;;;;;6.57;2.03;;;;;;;;;;4996006;28;20186;-81
2021/03/11 11:47:11;;;;;;;11.10;2.85;;;;;;;;;;4999136;28;20217;-78
2021/03/11 11:49:37;;;;;;;9.10;2.65;;;;;;;;;;4999402;28;20195;-78
2021/03/11 11:52:03;;;;;;;6.35;3.05;;;;;;;;;;4988819;28;20183;-83
2021/03/11 11:54:29;;;;;;;8.30;2.42;;;;;;;;;;4996683;28;20230;-81
2021/03/11 11:56:55;;;;;;;4.97;2.42;;;;;;;;;;4997010;28;20179;-79
2021/03/11 11:59:24;;;;;;;10.50;2.40;;;;;;;;;;4979390;28;20197;-80
2021/03/11 12:01:50;;;;;;;7.97;2.20;;;;;;;;;;4995012;28;20446;-83
2021/03/11 12:04:16;;;;;;;5.30;2.13;;;;;;;;;;5000952;28;20198;-89
2021/03/11 12:06:42;;;;;;;7.28;2.40;;;;;;;;;;5003049;28;20419;-83
2021/03/11 12:09:08;;;;;;;6.88;2.67;;;;;;;;;;4996294;28;20210;-82
2021/03/11 12:11:35;;;;;;;4.95;2.30;;;;;;;;;;4996608;28;20190;-81
2021/03/11 12:14:01;;;;;;;6.80;2.30;;;;;;;;;;4983157;28;20194;-78
2021/03/11 12:16:27;;;;;;;7.70;2.60;;;;;;;;;;4997245;28;20429;-81
2021/03/11 12:18:53;;;;;;;6.57;2.70;;;;;;;;;;5004421;28;20455;-78
2021/03/11 12:21:19;;;;;;;7.47;3.10;;;;;;;;;;4992808;28;20174;-82
2021/03/11 12:23:46;;;;;;;6.00;2.35;;;;;;;;;;4994352;28;20934;-77
2021/03/11 12:26:12;;;;;;;7.43;2.40;;;;;;;;;;5006179;28;20549;-76
2021/03/11 12:28:38;;;;;;;6.70;2.00;;;;;;;;;;4998524;28;20214;-77
2021/03/11 12:31:04;;;;;;;5.35;1.92;;;;;;;;;;5002913;28;20614;-79
2021/03/11 12:33:30;;;;;;;4.95;1.75;;;;;;;;;;4996350;28;20171;-81
2021/03/11 12:35:57;;;;;;;12.13;1.95;;;;;;;;;;4994343;28;20242;-80
2021/03/11 12:38:23;;;;;;;5.40;1.90;;;;;;;;;;4983891;28;20223;-80
2021/03/11 12:40:49;;;;;;;4.88;1.70;;;;;;;;;;5001504;28;20258;-81
2021/03/11 12:43:15;;;;;;;8.68;2.58;;;;;;;;;;4997077;28;20183;-82
2021/03/11 12:45:41;;;;;;;8.43;1.98;;;;;;;;;;4997658;28;20175;-81
2021/03/11 12:48:08;;;;;;;8.27;2.50;;;;;;;;;;4999581;28;20223;-81
2021/03/11 12:50:34;;;;;;;5.78;1.70;;;;;;;;;;4995677;28;20446;-84
2021/03/11 12:53:00;;;;;;;5.22;1.50;;;;;;;;;;5000195;28;20186;-83
2021/03/11 12:55:26;;;;;;;4.85;1.10;;;;;;;;;;4999843;28;20266;-81
2021/03/11 12:57:52;;;;;;;3.03;1.15;;;;;;;;;;4990622;28;20175;-84
2021/03/11 13:00:18;;;;;;;2.67;0.80;;;;;;;;;;4994559;28;20175;-83
2021/03/11 13:02:44;;;;;;;4.68;1.58;;;;;;;;;;4993330;28;20183;-82
2021/03/11 13:05:10;;;;;;;4.32;0.88;;;;;;;;;;4990594;28;20238;-82
2021/03/11 13:07:36;;;;;;;2.08;1.35;;;;;;;;;;5000120;28;20207;-81
2021/03/11 13:10:04;;;;;;;5.87;1.07;;;;;;;;;;4985339;28;20318;-80
2021/03/11 13:12:30;;;;;;;1.90;0.90;;;;;;;;;;4996052;28;20411;-80
2021/03/11 13:14:56;;;;;;;2.83;1.20;;;;;;;;;;4997918;28;20802;-81
2021/03/11 13:17:22;;;;;;;3.65;1.20;;;;;;;;;;4997788;28;20210;-79
2021/03/11 13:19:49;;;;;;;4.20;0.93;;;;;;;;;;4999576;28;20211;-80
2021/03/11 13:22:15;;;;;;;3.00;1.40;;;;;;;;;;4995432;28;20179;-82
2021/03/11 13:24:42;;;;;;;1.20;0.80;;;;;;;;;;4996156;28;20237;-80
2021/03/11 13:27:08;;;;;;;2.28;1.10;;;;;;;;;;4993916;28;20183;-82
2021/03/11 13:29:34;;;;;;;2.45;0.98;;;;;;;;;;4982379;28;20823;-82
2021/03/11 13:32:01;;;;;;;3.15;1.30;;;;;;;;;;4998248;28;20302;-80
2021/03/11 13:34:27;;;;;;;4.82;1.38;;;;;;;;;;4993903;28;20187;-83
2021/03/11 13:36:53;;;;;;;2.27;1.47;;;;;;;;;;4997550;28;20186;-81
2021/03/11 13:39:19;;;;;;;5.07;1.60;;;;;;;;;;4995232;28;20446;-87
2021/03/11 13:41:45;;;;;;;3.33;1.08;;;;;;;;;;4997513;28;20197;-81
2021/03/11 13:44:11;;;;;;;3.95;1.48;;;;;;;;;;4997584;28;20235;-81
2021/03/11 13:46:37;;;;;;;4.45;1.77;;;;;;;;;;5007274;28;20271;-81
2021/03/11 13:49:03;;;;;;;9.93;2.10;;;;;;;;;;4996935;28;20250;-82
2021/03/11 13:51:30;;;;;;;8.27;2.50;;;;;;;;;;4995008;28;20488;-81
2021/03/11 13:53:56;;;;;;;10.80;2.65;;;;;;;;;;4992713;28;20179;-88
2021/03/11 13:56:22;;;;;;;9.00;2.47;;;;;;;;;;4983738;28;20190;-84
2021/03/11 13:58:48;;;;;;;3.38;1.45;;;;;;;;;;4987539;28;20183;-84
2021/03/11 14:01:16;;;;;;;7.80;1.52;;;;;;;;;;5000815;28;20198;-85
2021/03/11 14:03:42;;;;;;;3.95;1.10;;;;;;;;;;5002529;28;20175;-84
2021/03/11 14:06:08;;;;;;;4.60;1.35;;;;;;;;;;4985282;28;20700;-89
2021/03/11 14:08:34;;;;;;;5.20;1.60;;;;;;;;;;4999578;28;20275;-89
2021/03/11 14:11:01;;;;;;;4.00;1.90;;;;;;;;;;4987280;28;20211;-88
2021/03/11 14:13:26;;;;;;;3.60;1.98;;;;;;;;;;4998327;28;20180;-85
2021/03/11 14:15:52;;;;;;;5.50;1.53;;;;;;;;;;5002773;28;20186;-83
2021/03/11 14:18:18;;;;;;;5.97;1.27;;;;;;;;;;4998746;28;20426;-87
2021/03/11 14:20:44;;;;;;;3.63;1.45;;;;;;;;;;5002303;28;20203;-85
2021/03/11 14:23:10;;;;;;;7.63;2.57;;;;;;;;;;5008858;28;21225;-84
2021/03/11 14:25:36;;;;;;;5.15;1.27;;;;;;;;;;4999855;28;20446;-84
2021/03/11 14:28:02;;;;;;;1.80;1.10;;;;;;;;;;4999951;28;20210;-86
2021/03/11 14:30:28;;;;;;;2.45;1.08;;;;;;;;;;4999307;28;20210;-83
2021/03/11 14:32:57;;;;;;;4.07;1.20;;;;;;;;;;5002958;28;20192;-83
2021/03/11 14:35:23;;;;;;;4.00;1.58;;;;;;;;;;5002217;28;20210;-88
2021/03/11 14:37:55;;;;;;;2.40;1.23;;;;;;;;;;5001814;28;20195;-85
2021/03/11 14:40:30;;;;;;;2.25;0.95;;;;;;;;;;5003192;28;20199;-82